Time;durP1;ratioP1;P1;durP2;ratioP2;P2;SDS_P1;SDS_P2;PMS_P1;PMS_P2;Temp;Humidity;BMP_temperature;BMP_pressure;BME280_temperature;BME280_humidity;BME280_pressure;Samples;Min_cycle;Max_cycle;Signal;HPM_P1;HPM_P2
2022/06/15 00:00:56;;;;;;;9.82;4.47;;;;;;;;;;4976170;28;20574;-59
2022/06/15 00:03:23;;;;;;;7.97;4.20;;;;;;;;;;4975674;28;20074;-59
2022/06/15 00:05:49;;;;;;;11.15;4.15;;;;;;;;;;4975371;28;20023;-61
2022/06/15 00:08:15;;;;;;;7.45;3.83;;;;;;;;;;4983523;28;20026;-61
2022/06/15 00:10:41;;;;;;;6.25;3.65;;;;;;;;;;4988456;28;20034;-59
2022/06/15 00:13:08;;;;;;;9.45;3.95;;;;;;;;;;5000969;28;20502;-60
2022/06/15 00:15:35;;;;;;;6.53;3.95;;;;;;;;;;5014238;28;20029;-61
2022/06/15 00:18:01;;;;;;;7.32;3.88;;;;;;;;;;4975030;28;20393;-61
2022/06/15 00:20:27;;;;;;;8.65;4.30;;;;;;;;;;4991626;28;20039;-59
2022/06/15 00:22:53;;;;;;;6.80;4.57;;;;;;;;;;4986282;28;20056;-59
2022/06/15 00:25:19;;;;;;;5.78;4.68;;;;;;;;;;4994164;28;20491;-61
2022/06/15 00:27:45;;;;;;;6.82;5.20;;;;;;;;;;4992663;28;20564;-61
2022/06/15 00:30:12;;;;;;;10.27;4.93;;;;;;;;;;4993972;28;20418;-59
2022/06/15 00:32:38;;;;;;;;;;;;;;;;;;4988715;28;20026;-61
2022/06/15 00:35:04;;;;;;;12.50;4.60;;;;;;;;;;4989652;28;19965;-61
2022/06/15 00:37:30;;;;;;;12.02;5.07;;;;;;;;;;4984486;28;20089;-61
2022/06/15 00:39:56;;;;;;;7.70;4.65;;;;;;;;;;4988871;23;20055;-54
2022/06/15 00:42:22;;;;;;;6.22;4.93;;;;;;;;;;4972358;28;20070;-54
2022/06/15 00:44:51;;;;;;;11.98;5.13;;;;;;;;;;4973875;28;20112;-53
2022/06/15 00:47:36;;;;;;;13.48;4.60;;;;;;;;;;4973195;28;20030;-52
2022/06/15 00:50:02;;;;;;;6.30;4.57;;;;;;;;;;4974177;28;20027;-52
2022/06/15 00:52:35;;;;;;;4.70;4.30;;;;;;;;;;4973843;28;20041;-54
2022/06/15 00:55:11;;;;;;;7.22;4.80;;;;;;;;;;4973807;28;20035;-53
2022/06/15 00:57:37;;;;;;;8.57;4.90;;;;;;;;;;4972607;28;20045;-52
2022/06/15 01:00:04;;;;;;;7.13;4.68;;;;;;;;;;4973979;28;20093;-55
2022/06/15 01:02:35;;;;;;;8.05;4.50;;;;;;;;;;4973738;28;20034;-52
2022/06/15 01:05:07;;;;;;;7.03;4.55;;;;;;;;;;4968123;28;20125;-53
2022/06/15 01:07:45;;;;;;;9.43;5.00;;;;;;;;;;4973614;28;20034;-53
2022/06/15 01:10:17;;;;;;;4.85;4.18;;;;;;;;;;4972893;28;20033;-52
2022/06/15 01:12:56;;;;;;;8.30;4.93;;;;;;;;;;4973550;28;20040;-54
2022/06/15 01:15:31;;;;;;;8.15;4.60;;;;;;;;;;4973818;28;20057;-53
2022/06/15 01:18:04;;;;;;;9.30;5.13;;;;;;;;;;4973733;28;20041;-54
2022/06/15 01:20:36;;;;;;;8.63;4.80;;;;;;;;;;4959303;28;20031;-53
2022/06/15 01:23:11;;;;;;;12.70;5.43;;;;;;;;;;4973550;28;20122;-55
2022/06/15 01:25:37;;;;;;;8.77;4.80;;;;;;;;;;4973384;28;20488;-55
2022/06/15 01:28:21;;;;;;;8.10;4.77;;;;;;;;;;4973519;28;20031;-52
2022/06/15 01:31:06;;;;;;;11.80;5.18;;;;;;;;;;4973433;28;20778;-53
2022/06/15 01:33:44;;;;;;;9.35;4.82;;;;;;;;;;4971922;28;20022;-55
2022/06/15 01:36:10;;;;;;;8.35;4.68;;;;;;;;;;4972216;28;20039;-54
2022/06/15 01:38:43;;;;;;;6.27;4.43;;;;;;;;;;4956792;28;20517;-52
2022/06/15 01:41:18;;;;;;;10.43;5.38;;;;;;;;;;4973292;28;20691;-54
2022/06/15 01:43:50;;;;;;;10.75;4.65;;;;;;;;;;4973748;28;20030;-55
2022/06/15 01:46:16;;;;;;;9.18;5.15;;;;;;;;;;4973243;28;20035;-54
2022/06/15 01:48:43;;;;;;;10.10;5.25;;;;;;;;;;4972765;28;20046;-53
2022/06/15 01:51:11;;;;;;;9.77;6.88;;;;;;;;;;4971558;28;20027;-53
2022/06/15 01:53:40;;;;;;;14.68;4.60;;;;;;;;;;4972700;28;20504;-54
2022/06/15 01:56:06;;;;;;;12.60;5.78;;;;;;;;;;4972920;28;20101;-55
2022/06/15 01:58:34;;;;;;;10.53;4.37;;;;;;;;;;4973125;28;20109;-55
2022/06/15 02:01:07;;;;;;;6.55;4.43;;;;;;;;;;4972808;28;20554;-54
2022/06/15 02:03:39;;;;;;;7.18;4.93;;;;;;;;;;4972850;28;20027;-53
2022/06/15 02:06:11;;;;;;;11.60;4.43;;;;;;;;;;4972722;28;20097;-55
2022/06/15 02:08:39;;;;;;;8.43;4.60;;;;;;;;;;4971783;28;20383;-56
2022/06/15 02:11:16;;;;;;;6.70;3.78;;;;;;;;;;4972899;28;20035;-53
2022/06/15 02:14:00;;;;;;;8.23;4.80;;;;;;;;;;4972557;28;20019;-54
2022/06/15 02:16:29;;;;;;;8.93;4.38;;;;;;;;;;4971633;28;20471;-52
2022/06/15 02:18:56;;;;;;;6.05;4.60;;;;;;;;;;4972012;28;20043;-54
2022/06/15 02:21:23;;;;;;;9.18;4.28;;;;;;;;;;4972639;28;20475;-56
2022/06/15 02:23:51;;;;;;;4.72;4.10;;;;;;;;;;4972478;28;20030;-54
2022/06/15 02:26:18;;;;;;;7.85;4.30;;;;;;;;;;4972748;28;20034;-55
2022/06/15 02:28:44;;;;;;;;;;;;;;;;;;4973013;28;20547;-55
2022/06/15 02:31:10;;;;;;;6.47;4.97;;;;;;;;;;4972672;28;19961;-56
2022/06/15 02:33:38;;;;;;;7.13;4.05;;;;;;;;;;4971224;28;20030;-55
2022/06/15 02:36:05;;;;;;;7.07;4.45;;;;;;;;;;4971221;28;20027;-55
2022/06/15 02:38:31;;;;;;;6.50;4.13;;;;;;;;;;4972276;28;20030;-54
2022/06/15 02:40:58;;;;;;;10.10;4.13;;;;;;;;;;4972402;28;20471;-53
2022/06/15 02:43:26;;;;;;;7.50;4.35;;;;;;;;;;4972442;28;20030;-56
2022/06/15 02:45:54;;;;;;;13.45;4.68;;;;;;;;;;4972209;28;20031;-54
2022/06/15 02:48:20;;;;;;;6.20;4.03;;;;;;;;;;4955234;28;20027;-55
2022/06/15 02:51:03;;;;;;;9.13;4.15;;;;;;;;;;4969790;28;20031;-54
2022/06/15 02:53:30;;;;;;;11.20;4.57;;;;;;;;;;4969051;28;20019;-55
2022/06/15 02:55:57;;;;;;;7.47;4.65;;;;;;;;;;4972488;28;20374;-53
2022/06/15 02:58:23;;;;;;;;;;;;;;;;;;4972663;28;20027;-53
2022/06/15 03:00:49;;;;;;;6.43;4.13;;;;;;;;;;4972056;28;19917;-53
2022/06/15 03:03:15;;;;;;;8.80;4.30;;;;;;;;;;4972691;28;20027;-55
2022/06/15 03:05:47;;;;;;;8.52;4.03;;;;;;;;;;4971676;28;20093;-55
2022/06/15 03:08:13;;;;;;;7.57;4.32;;;;;;;;;;4961166;28;20078;-54
2022/06/15 03:10:40;;;;;;;7.17;4.40;;;;;;;;;;4972468;28;20023;-54
2022/06/15 03:13:06;;;;;;;7.78;4.70;;;;;;;;;;4972540;28;20034;-53
2022/06/15 03:15:32;;;;;;;38.35;5.13;;;;;;;;;;4967647;28;20023;-52
2022/06/15 03:17:58;;;;;;;10.55;4.60;;;;;;;;;;4988378;28;20026;-55
2022/06/15 03:20:25;;;;;;;11.52;5.22;;;;;;;;;;4990082;28;20034;-56
2022/06/15 03:22:51;;;;;;;10.00;4.55;;;;;;;;;;4975712;28;20031;-55
2022/06/15 03:25:18;;;;;;;9.93;4.90;;;;;;;;;;4976116;28;20039;-55
2022/06/15 03:27:44;;;;;;;6.53;4.18;;;;;;;;;;4975600;28;20046;-55
2022/06/15 03:30:10;;;;;;;8.15;4.45;;;;;;;;;;4975926;28;20027;-56
2022/06/15 03:32:36;;;;;;;8.55;5.40;;;;;;;;;;4975665;28;20383;-52
2022/06/15 03:35:03;;;;;;;14.35;5.07;;;;;;;;;;4963462;28;20039;-55
2022/06/15 03:37:29;;;;;;;5.60;4.47;;;;;;;;;;4956439;28;20050;-56
2022/06/15 03:39:55;;;;;;;18.25;7.05;;;;;;;;;;4957815;28;20089;-54
2022/06/15 03:42:22;;;;;;;11.35;5.53;;;;;;;;;;4968020;28;20081;-56
2022/06/15 03:44:49;;;;;;;7.47;5.15;;;;;;;;;;4958926;28;20118;-53
2022/06/15 03:47:18;;;;;;;12.43;6.38;;;;;;;;;;4963853;28;20311;-55
2022/06/15 03:49:45;;;;;;;9.75;5.03;;;;;;;;;;4975470;28;20555;-54
2022/06/15 03:52:11;;;;;;;7.25;5.15;;;;;;;;;;4975444;28;20066;-56
2022/06/15 03:54:37;;;;;;;17.30;5.05;;;;;;;;;;4962753;28;20023;-55
2022/06/15 03:57:04;;;;;;;11.00;4.85;;;;;;;;;;4974052;28;20480;-54
2022/06/15 03:59:30;;;;;;;15.50;5.20;;;;;;;;;;4975206;28;20109;-56
2022/06/15 04:01:57;;;;;;;7.00;4.55;;;;;;;;;;4974340;28;20026;-53
2022/06/15 04:04:23;;;;;;;17.63;6.88;;;;;;;;;;4973560;28;20089;-53
2022/06/15 04:06:49;;;;;;;8.95;6.28;;;;;;;;;;4973780;28;20091;-55
2022/06/15 04:09:20;;;;;;;11.18;4.60;;;;;;;;;;4973920;28;20055;-55
2022/06/15 04:11:59;;;;;;;8.50;5.22;;;;;;;;;;4975038;28;20027;-56
2022/06/15 04:14:32;;;;;;;9.38;5.05;;;;;;;;;;4974574;28;20023;-55
2022/06/15 04:16:59;;;;;;;7.30;5.18;;;;;;;;;;4975143;28;20023;-56
2022/06/15 04:19:27;;;;;;;11.57;4.75;;;;;;;;;;4973481;28;20103;-55
2022/06/15 04:21:53;;;;;;;6.25;5.30;;;;;;;;;;4975116;28;20057;-55
2022/06/15 04:24:20;;;;;;;8.93;6.32;;;;;;;;;;4975063;28;20077;-53
2022/06/15 04:26:47;;;;;;;11.07;5.22;;;;;;;;;;4974862;28;20459;-56
2022/06/15 04:29:14;;;;;;;9.50;5.30;;;;;;;;;;4974818;28;20099;-53
2022/06/15 04:31:40;;;;;;;9.07;5.13;;;;;;;;;;4974580;28;20019;-53
2022/06/15 04:34:07;;;;;;;7.90;5.80;;;;;;;;;;4975359;28;20043;-56
2022/06/15 04:36:33;;;;;;;7.28;5.68;;;;;;;;;;4974639;28;20035;-51
2022/06/15 04:38:59;;;;;;;8.52;5.50;;;;;;;;;;4974651;28;20077;-52
2022/06/15 04:41:25;;;;;;;7.55;5.32;;;;;;;;;;4974481;28;20042;-50
2022/06/15 04:43:51;;;;;;;7.63;5.18;;;;;;;;;;4974588;28;20038;-53
2022/06/15 04:46:18;;;;;;;8.00;4.70;;;;;;;;;;4974562;28;20095;-52
2022/06/15 04:48:44;;;;;;;9.35;6.10;;;;;;;;;;4974438;28;20029;-51
2022/06/15 04:51:10;;;;;;;9.25;4.72;;;;;;;;;;4974396;28;20475;-53
2022/06/15 04:53:36;;;;;;;10.02;5.00;;;;;;;;;;4965531;28;20114;-53
2022/06/15 04:56:02;;;;;;;5.82;4.78;;;;;;;;;;4955691;28;20031;-53
2022/06/15 04:58:28;;;;;;;10.48;4.63;;;;;;;;;;4954939;28;20027;-50
2022/06/15 05:00:54;;;;;;;10.80;5.33;;;;;;;;;;4955030;28;20062;-50
2022/06/15 05:03:20;;;;;;;9.37;4.23;;;;;;;;;;4955099;28;20589;-50
2022/06/15 05:05:46;;;;;;;9.97;4.73;;;;;;;;;;4953878;28;20597;-50
2022/06/15 05:08:12;;;;;;;11.93;5.18;;;;;;;;;;4954786;28;20439;-50
2022/06/15 05:10:38;;;;;;;10.55;6.53;;;;;;;;;;4954801;28;20099;-50
2022/06/15 05:13:05;;;;;;;10.70;4.87;;;;;;;;;;4954951;28;20056;-50
2022/06/15 05:15:31;;;;;;;6.43;5.50;;;;;;;;;;4954885;28;20324;-53
2022/06/15 05:18:00;;;;;;;10.95;6.43;;;;;;;;;;4954731;28;20384;-50
2022/06/15 05:20:26;;;;;;;12.98;5.05;;;;;;;;;;4954638;28;20066;-51
2022/06/15 05:22:56;;;;;;;9.30;5.33;;;;;;;;;;4954767;28;20384;-50
2022/06/15 05:25:23;;;;;;;8.07;5.43;;;;;;;;;;4954779;28;20335;-50
2022/06/15 05:27:49;;;;;;;14.43;6.63;;;;;;;;;;4954462;28;20032;-50
2022/06/15 05:30:15;;;;;;;11.35;5.85;;;;;;;;;;4954526;28;20023;-57
2022/06/15 05:32:42;;;;;;;8.88;5.85;;;;;;;;;;4954595;28;20499;-55
2022/06/15 05:35:08;;;;;;;8.82;6.03;;;;;;;;;;4954458;28;20105;-56
2022/06/15 05:37:35;;;;;;;9.70;6.03;;;;;;;;;;4954405;28;20035;-55
2022/06/15 05:40:01;;;;;;;;;;;;;;;;;;4954661;28;20506;-55
2022/06/15 05:42:28;;;;;;;11.70;5.95;;;;;;;;;;4954574;28;20009;-56
2022/06/15 05:44:55;;;;;;;13.18;5.97;;;;;;;;;;4953503;28;20058;-54
2022/06/15 05:47:21;;;;;;;13.77;6.50;;;;;;;;;;4954119;28;20373;-56
2022/06/15 05:49:47;;;;;;;11.35;6.00;;;;;;;;;;4968861;28;20023;-55
2022/06/15 05:52:13;;;;;;;13.87;6.23;;;;;;;;;;4973026;28;20027;-56
2022/06/15 05:54:39;;;;;;;11.57;6.10;;;;;;;;;;4973564;28;20250;-55
2022/06/15 05:57:18;;;;;;;9.57;5.32;;;;;;;;;;4973481;28;20054;-56
2022/06/15 05:59:44;;;;;;;7.78;5.13;;;;;;;;;;4973170;28;20526;-55
2022/06/15 06:02:11;;;;;;;12.43;4.82;;;;;;;;;;4973229;28;20045;-53
2022/06/15 06:04:37;;;;;;;7.00;5.13;;;;;;;;;;4973219;28;20059;-55
2022/06/15 06:07:03;;;;;;;6.78;4.90;;;;;;;;;;4973033;28;20499;-53
2022/06/15 06:09:30;;;;;;;14.35;6.00;;;;;;;;;;4972925;28;20057;-52
2022/06/15 06:11:56;;;;;;;;;;;;;;;;;;4972315;28;20031;-56
2022/06/15 06:14:22;;;;;;;9.85;5.53;;;;;;;;;;4973112;28;19905;-56
2022/06/15 06:16:48;;;;;;;11.10;6.10;;;;;;;;;;4973092;28;20186;-54
2022/06/15 06:19:14;;;;;;;9.23;5.47;;;;;;;;;;4973051;28;20328;-56
2022/06/15 06:21:43;;;;;;;13.10;5.00;;;;;;;;;;4973109;28;20266;-56
2022/06/15 06:24:09;;;;;;;8.32;5.47;;;;;;;;;;4973028;28;20786;-55
2022/06/15 06:26:36;;;;;;;11.50;6.18;;;;;;;;;;4973052;28;20031;-56
2022/06/15 06:29:03;;;;;;;15.73;5.38;;;;;;;;;;4972741;28;20023;-53
2022/06/15 06:31:30;;;;;;;8.98;5.60;;;;;;;;;;4973165;28;20031;-56
2022/06/15 06:33:56;;;;;;;14.57;5.50;;;;;;;;;;4972936;28;20031;-54
2022/06/15 06:36:29;;;;;;;8.68;5.20;;;;;;;;;;4972968;28;20034;-53
2022/06/15 06:38:55;;;;;;;9.68;5.65;;;;;;;;;;4972718;28;20026;-56
2022/06/15 06:41:22;;;;;;;11.80;5.05;;;;;;;;;;4994312;23;20051;-61
2022/06/15 06:43:48;;;;;;;5.82;4.60;;;;;;;;;;4972306;28;20078;-62
2022/06/15 06:46:14;;;;;;;9.93;6.10;;;;;;;;;;4971387;28;20093;-62
2022/06/15 06:48:41;;;;;;;6.88;5.03;;;;;;;;;;4972445;28;20030;-62
2022/06/15 06:51:07;;;;;;;7.80;5.60;;;;;;;;;;4978032;28;20226;-61
2022/06/15 06:53:33;;;;;;;11.30;5.82;;;;;;;;;;4972103;28;20031;-60
2022/06/15 06:56:03;;;;;;;11.98;5.03;;;;;;;;;;4975029;28;20033;-60
2022/06/15 06:58:30;;;;;;;11.27;4.95;;;;;;;;;;4976200;28;20031;-60
2022/06/15 07:00:56;;;;;;;13.20;5.57;;;;;;;;;;4976324;28;20026;-62
2022/06/15 07:03:23;;;;;;;11.05;5.00;;;;;;;;;;4976333;28;20050;-61
2022/06/15 07:05:49;;;;;;;6.40;4.03;;;;;;;;;;4975321;28;20783;-62
2022/06/15 07:08:15;;;;;;;10.52;3.83;;;;;;;;;;4976197;28;20271;-63
2022/06/15 07:10:41;;;;;;;6.15;4.80;;;;;;;;;;4976271;28;20274;-61
2022/06/15 07:13:07;;;;;;;13.63;5.82;;;;;;;;;;4966260;28;20057;-61
2022/06/15 07:15:33;;;;;;;14.02;4.07;;;;;;;;;;4974690;28;20054;-60
2022/06/15 07:18:03;;;;;;;7.90;4.75;;;;;;;;;;4976142;28;20114;-59
2022/06/15 07:20:30;;;;;;;9.02;4.45;;;;;;;;;;4976137;28;20590;-61
2022/06/15 07:22:57;;;;;;;10.35;4.90;;;;;;;;;;4976238;28;20038;-59
2022/06/15 07:25:23;;;;;;;9.40;4.97;;;;;;;;;;4977071;28;20023;-61
2022/06/15 07:27:50;;;;;;;6.75;4.40;;;;;;;;;;4995328;28;20033;-59
2022/06/15 07:30:19;;;;;;;7.13;4.45;;;;;;;;;;4995373;28;20030;-59
2022/06/15 07:32:46;;;;;;;6.20;4.70;;;;;;;;;;4994860;28;20026;-60
2022/06/15 07:35:15;;;;;;;5.38;4.63;;;;;;;;;;4995459;28;20178;-61
2022/06/15 07:37:41;;;;;;;8.52;4.35;;;;;;;;;;4995342;28;20430;-59
2022/06/15 07:40:07;;;;;;;4.50;3.25;;;;;;;;;;4992355;28;20027;-61
2022/06/15 07:42:33;;;;;;;7.68;4.00;;;;;;;;;;4995324;28;20030;-61
2022/06/15 07:44:59;;;;;;;7.30;4.15;;;;;;;;;;4993948;28;20053;-60
2022/06/15 07:50:10;;;;;;;11.82;3.70;;;;;;;;;;4995107;28;20057;-60
2022/06/15 07:52:38;;;;;;;7.28;4.05;;;;;;;;;;4995233;28;20386;-61
2022/06/15 07:55:06;;;;;;;9.90;4.63;;;;;;;;;;4995093;28;20033;-60
2022/06/15 07:57:32;;;;;;;7.57;4.15;;;;;;;;;;4994835;28;20027;-60
2022/06/15 07:59:59;;;;;;;5.90;4.32;;;;;;;;;;4994906;28;20053;-61
2022/06/15 08:02:25;;;;;;;8.32;4.00;;;;;;;;;;4995059;28;20026;-59
2022/06/15 08:04:51;;;;;;;7.18;3.88;;;;;;;;;;4995010;28;20082;-59
2022/06/15 08:07:17;;;;;;;5.97;3.80;;;;;;;;;;4993680;28;20034;-60
2022/06/15 08:09:43;;;;;;;9.32;4.15;;;;;;;;;;4994795;28;20045;-59
2022/06/15 08:12:18;;;;;;;8.20;4.70;;;;;;;;;;4994673;28;20084;-61
2022/06/15 08:14:44;;;;;;;9.88;4.95;;;;;;;;;;4994783;28;20014;-60
2022/06/15 08:17:12;;;;;;;7.85;4.03;;;;;;;;;;4994697;28;20034;-59
2022/06/15 08:19:39;;;;;;;9.63;5.10;;;;;;;;;;4994714;28;20026;-61
2022/06/15 08:22:07;;;;;;;8.00;4.80;;;;;;;;;;4993342;28;20026;-60
2022/06/15 08:24:33;;;;;;;8.50;4.90;;;;;;;;;;4993223;28;20533;-60
2022/06/15 08:26:59;;;;;;;6.45;4.38;;;;;;;;;;4994339;28;20038;-58
2022/06/15 08:29:25;;;;;;;;;;;;;;;;;;4994840;28;20018;-59
2022/06/15 08:31:56;;;;;;;11.82;4.85;;;;;;;;;;4994423;28;19913;-61
2022/06/15 08:34:23;;;;;;;7.38;5.70;;;;;;;;;;4994403;28;20109;-61
2022/06/15 08:36:49;;;;;;;7.13;4.07;;;;;;;;;;4994325;28;20491;-60
2022/06/15 08:39:15;;;;;;;7.43;4.07;;;;;;;;;;4994115;28;20076;-61
2022/06/15 08:41:41;;;;;;;6.22;4.00;;;;;;;;;;4994058;28;20112;-60
2022/06/15 08:44:07;;;;;;;7.20;3.42;;;;;;;;;;4994283;28;20529;-59
2022/06/15 08:46:48;;;;;;;5.18;3.83;;;;;;;;;;4994107;28;20494;-58
2022/06/15 08:49:23;;;;;;;5.32;3.97;;;;;;;;;;4994062;28;20502;-61
2022/06/15 08:51:55;;;;;;;7.03;4.07;;;;;;;;;;4993954;28;20033;-60
2022/06/15 08:54:21;;;;;;;4.78;3.53;;;;;;;;;;4994151;28;20054;-60
2022/06/15 08:57:02;;;;;;;8.23;3.58;;;;;;;;;;4993944;28;20104;-60
2022/06/15 08:59:46;;;;;;;6.78;3.00;;;;;;;;;;4992493;28;20026;-59
2022/06/15 09:02:15;;;;;;;9.55;3.95;;;;;;;;;;4993784;28;20046;-61
2022/06/15 09:04:41;;;;;;;8.23;3.83;;;;;;;;;;4993841;28;20394;-60
2022/06/15 09:07:07;;;;;;;7.38;4.38;;;;;;;;;;4993613;28;20030;-60
2022/06/15 09:09:36;;;;;;;8.85;4.05;;;;;;;;;;4993666;28;20105;-60
2022/06/15 09:14:56;;;;;;;6.55;4.28;;;;;;;;;;4993918;28;20045;-58
2022/06/15 09:17:23;;;;;;;4.45;3.80;;;;;;;;;;4993539;28;20037;-59
2022/06/15 09:20:08;;;;;;;7.82;4.70;;;;;;;;;;4993333;28;20066;-59
2022/06/15 09:22:44;;;;;;;5.53;4.30;;;;;;;;;;4992147;28;20030;-59
2022/06/15 09:25:14;;;;;;;7.75;4.35;;;;;;;;;;4993412;28;20030;-60
2022/06/15 09:27:45;;;;;;;5.75;4.28;;;;;;;;;;4993185;28;20073;-58
2022/06/15 09:30:20;;;;;;;8.60;4.07;;;;;;;;;;4993342;28;20033;-61
2022/06/15 09:33:06;;;;;;;6.55;4.25;;;;;;;;;;4993295;28;20130;-60
2022/06/15 09:35:41;;;;;;;6.22;4.13;;;;;;;;;;4992617;28;20510;-56
2022/06/15 09:38:10;;;;;;;6.20;3.40;;;;;;;;;;4993203;28;20066;-60
2022/06/15 09:40:44;;;;;;;7.40;5.70;;;;;;;;;;4992937;28;20051;-61
2022/06/15 09:43:33;;;;;;;5.22;3.88;;;;;;;;;;4993174;28;20045;-60
2022/06/15 09:46:04;;;;;;;7.20;5.00;;;;;;;;;;4993194;28;20407;-59
2022/06/15 09:48:38;;;;;;;12.07;4.43;;;;;;;;;;4992836;28;20049;-60
2022/06/15 09:51:23;;;;;;;7.22;3.90;;;;;;;;;;4992921;28;20450;-59
2022/06/15 09:54:04;;;;;;;6.25;3.85;;;;;;;;;;4992955;28;20026;-61
2022/06/15 09:56:30;;;;;;;7.70;4.25;;;;;;;;;;4992795;28;20026;-59
2022/06/15 09:58:57;;;;;;;6.68;4.38;;;;;;;;;;4992580;28;20117;-60
2022/06/15 10:01:28;;;;;;;5.43;3.70;;;;;;;;;;4992864;28;20030;-60
2022/06/15 10:03:55;;;;;;;5.90;3.70;;;;;;;;;;4992948;28;20034;-61
2022/06/15 10:06:21;;;;;;;6.80;3.47;;;;;;;;;;4992692;28;20101;-59
2022/06/15 10:08:47;;;;;;;5.82;3.85;;;;;;;;;;4992459;28;20023;-60
2022/06/15 10:11:19;;;;;;;4.28;3.72;;;;;;;;;;4977147;28;20026;-61
2022/06/15 10:13:46;;;;;;;6.95;4.40;;;;;;;;;;4973427;28;20380;-60
2022/06/15 10:16:15;;;;;;;7.57;3.80;;;;;;;;;;4974308;28;20026;-60
2022/06/15 10:18:49;;;;;;;10.63;3.88;;;;;;;;;;4972746;28;20086;-60
2022/06/15 10:21:15;;;;;;;4.97;3.08;;;;;;;;;;4972268;28;20041;-59
2022/06/15 10:23:48;;;;;;;8.65;3.83;;;;;;;;;;4975675;28;20106;-61
2022/06/15 10:26:29;;;;;;;8.35;4.20;;;;;;;;;;4985152;28;20034;-60
2022/06/15 10:28:56;;;;;;;5.22;3.65;;;;;;;;;;4985048;28;20050;-60
2022/06/15 10:31:32;;;;;;;10.50;4.63;;;;;;;;;;4978105;28;20110;-61
2022/06/15 10:33:58;;;;;;;9.32;4.10;;;;;;;;;;4973036;28;20015;-60
2022/06/15 10:36:36;;;;;;;8.05;4.00;;;;;;;;;;4973025;28;20023;-61
2022/06/15 10:39:04;;;;;;;6.80;3.80;;;;;;;;;;4970931;28;20555;-61
2022/06/15 10:41:47;;;;;;;4.80;3.22;;;;;;;;;;4972370;28;20026;-59
2022/06/15 10:44:14;;;;;;;4.30;3.50;;;;;;;;;;4972592;28;20026;-60
2022/06/15 10:46:52;;;;;;;7.90;4.10;;;;;;;;;;4972256;28;20365;-61
2022/06/15 10:49:18;;;;;;;5.85;4.00;;;;;;;;;;4972821;28;20027;-62
2022/06/15 10:51:44;;;;;;;;;;;;;;;;;;4973964;28;20034;-60
2022/06/15 10:54:29;;;;;;;4.90;4.20;;;;;;;;;;4979638;28;19909;-61
2022/06/15 11:02:24;;;;;;;4.93;3.75;;;;;;;;;;4977823;28;20045;-62
2022/06/15 11:04:52;;;;;;;5.13;3.22;;;;;;;;;;4981693;28;20030;-62
2022/06/15 11:07:21;;;;;;;6.65;4.10;;;;;;;;;;4982172;28;20030;-62
2022/06/15 11:09:54;;;;;;;81.97;73.22;;;;;;;;;;4981255;28;20027;-62
2022/06/15 11:12:23;;;;;;;8.82;4.22;;;;;;;;;;4974471;28;20035;-62
2022/06/15 11:15:01;;;;;;;5.10;3.40;;;;;;;;;;4973548;28;20383;-61
2022/06/15 11:20:31;;;;;;;6.57;4.13;;;;;;;;;;4978315;28;20050;-62
2022/06/15 11:23:04;;;;;;;8.52;4.43;;;;;;;;;;4985087;28;20053;-62
2022/06/15 11:25:35;;;;;;;8.35;3.50;;;;;;;;;;4981139;28;20451;-62
2022/06/15 11:28:04;;;;;;;4.55;3.08;;;;;;;;;;4978936;28;20031;-62
2022/06/15 11:30:34;;;;;;;3.70;3.15;;;;;;;;;;4973218;28;20026;-62
2022/06/15 11:33:00;;;;;;;4.57;3.08;;;;;;;;;;4971916;28;20034;-62
2022/06/15 11:35:40;;;;;;;12.98;2.55;;;;;;;;;;4972265;28;20408;-62
2022/06/15 11:38:18;;;;;;;5.88;2.88;;;;;;;;;;4972319;28;20019;-62
2022/06/15 11:40:44;;;;;;;5.82;3.35;;;;;;;;;;4971124;28;20039;-62
2022/06/15 11:43:14;;;;;;;5.97;3.35;;;;;;;;;;4974385;28;20030;-62
2022/06/15 11:45:48;;;;;;;6.93;3.30;;;;;;;;;;4975998;28;20607;-62
2022/06/15 12:22:14;;;;;;;5.43;3.28;;;32.10;42.60;;;;;;5108601;27;20375;-61
2022/06/15 12:24:55;;;;;;;7.55;3.75;;;33.60;41.20;;;;;;5118811;23;20033;-56
2022/06/15 12:27:37;;;;;;;4.75;3.50;;;33.30;40.30;;;;;;5068638;28;20065;-52
2022/06/15 12:30:42;;;;;;;6.40;3.72;;;33.20;40.20;;;;;;5068135;28;20051;-51
2022/06/15 12:33:33;;;;;;;4.45;3.65;;;33.00;41.80;;;;;;5032225;28;20036;-55
2022/06/15 12:36:03;;;;;;;4.90;3.40;;;33.10;41.30;;;;;;5087275;28;20031;-53
2022/06/15 12:38:49;;;;;;;7.82;3.40;;;33.30;41.20;;;;;;5068947;28;20029;-56
2022/06/15 12:44:25;;;;;;;9.70;3.55;;;33.70;41.20;;;;;;5076354;28;20035;-54
2022/06/15 12:46:52;;;;;;;6.13;3.45;;;33.90;41.60;;;;;;5078833;28;20028;-55
2022/06/15 12:49:31;;;;;;;7.70;3.83;;;34.10;41.50;;;;;;5085960;28;20028;-55
2022/06/15 12:52:15;;;;;;;6.75;3.70;;;34.40;39.10;;;;;;5068339;28;20453;-57
2022/06/15 12:54:50;;;;;;;8.23;3.70;;;34.50;39.60;;;;;;5067531;28;20025;-54
2022/06/15 12:57:52;;;;;;;5.80;3.85;;;34.60;40.50;;;;;;5070752;28;20024;-56
2022/06/15 13:00:24;;;;;;;6.57;3.60;;;34.70;38.70;;;;;;5074530;28;20051;-55
2022/06/15 13:03:27;;;;;;;6.47;4.20;;;34.70;39.40;;;;;;5088299;28;20107;-56
2022/06/15 13:06:22;;;;;;;11.68;3.72;;;34.70;38.70;;;;;;5079220;28;20090;-55
2022/06/15 13:08:59;;;;;;;5.78;3.53;;;34.50;39.40;;;;;;5079661;28;20425;-53
2022/06/15 13:11:25;;;;;;;18.88;6.07;;;34.60;40.40;;;;;;5082411;28;20032;-53
2022/06/15 13:13:53;;;;;;;6.95;4.90;;;34.70;39.50;;;;;;5087745;28;20039;-54
2022/06/15 13:16:41;;;;;;;14.02;5.35;;;34.80;40.30;;;;;;5087649;28;20020;-54
2022/06/15 13:19:25;;;;;;;6.82;4.13;;;35.10;39.20;;;;;;5088020;28;20078;-55
2022/06/15 13:21:52;;;;;;;5.43;3.70;;;35.20;39.80;;;;;;5067048;28;20032;-55
2022/06/15 13:24:19;;;;;;;10.15;4.85;;;35.60;39.90;;;;;;5074201;28;20031;-53
2022/06/15 13:26:50;;;;;;;11.23;4.32;;;36.30;37.40;;;;;;5073965;28;20016;-54
2022/06/15 13:29:19;;;;;;;10.10;3.80;;;36.80;37.10;;;;;;5074423;28;20033;-53
2022/06/15 13:31:50;;;;;;;6.15;3.75;;;37.40;37.10;;;;;;5059996;28;20048;-54
2022/06/15 13:34:36;;;;;;;9.18;3.22;;;;;;;;;;5058561;28;20033;-52
2022/06/15 13:37:18;;;;;;;5.47;3.30;;;38.10;36.20;;;;;;5039646;28;20043;-54
2022/06/15 13:39:47;;;;;;;5.00;3.78;;;39.10;35.70;;;;;;5072280;28;20116;-53
2022/06/15 13:42:38;;;;;;;9.55;3.85;;;39.40;34.20;;;;;;5057115;28;20124;-55
2022/06/15 13:45:22;;;;;;;8.43;3.88;;;39.60;34.00;;;;;;5053571;28;20033;-52
2022/06/15 13:47:51;;;;;;;8.00;3.60;;;39.70;32.80;;;;;;5053829;28;20021;-54
2022/06/15 13:50:26;;;;;;;7.22;4.38;;;39.80;34.10;;;;;;5053382;28;20487;-55
2022/06/15 13:52:54;;;;;;;13.32;4.50;;;39.90;33.70;;;;;;5053227;28;20025;-54
2022/06/15 13:55:37;;;;;;;5.80;3.72;;;40.00;33.60;;;;;;5059367;28;20064;-56
2022/06/15 13:58:15;;;;;;;10.13;4.45;;;40.10;33.10;;;;;;5043038;28;20071;-56
2022/06/15 14:01:18;;;;;;;9.73;3.53;;;40.30;33.20;;;;;;5053746;28;20162;-54
2022/06/15 14:04:02;;;;;;;7.95;3.92;;;40.50;32.70;;;;;;5015984;28;20034;-55
2022/06/15 14:06:51;;;;;;;11.63;4.65;;;40.60;32.40;;;;;;5033687;28;20033;-55
2022/06/15 14:09:33;;;;;;;5.82;3.80;;;40.90;31.60;;;;;;5033679;28;20566;-57
2022/06/15 14:12:08;;;;;;;9.00;3.67;;;41.10;31.60;;;;;;5033456;28;20022;-55
2022/06/15 14:15:06;;;;;;;6.13;3.53;;;41.40;32.00;;;;;;5048433;28;20081;-56
2022/06/15 14:17:56;;;;;;;4.68;3.35;;;41.60;31.50;;;;;;5057228;28;20021;-55
2022/06/15 14:20:28;;;;;;;4.82;3.38;;;41.60;31.70;;;;;;5065122;28;20055;-52
2022/06/15 14:22:59;;;;;;;5.97;3.83;;;41.20;32.00;;;;;;5055176;28;20033;-55
2022/06/15 14:25:26;;;;;;;5.70;4.22;;;40.80;31.50;;;;;;5052665;28;20142;-52
2022/06/15 14:27:58;;;;;;;6.10;3.70;;;40.00;31.60;;;;;;5052585;28;20055;-56
2022/06/15 14:30:32;;;;;;;9.82;4.25;;;39.00;32.60;;;;;;5052993;28;20741;-56
2022/06/15 14:33:06;;;;;;;7.90;4.40;;;38.60;33.50;;;;;;5034299;28;20394;-54
2022/06/15 14:35:32;;;;;;;11.07;4.13;;;38.50;33.80;;;;;;5053040;28;20025;-55
2022/06/15 14:38:01;;;;;;;7.20;3.85;;;38.20;34.20;;;;;;5053038;28;20073;-53
2022/06/15 14:40:39;;;;;;;8.52;4.68;;;38.10;34.20;;;;;;5052783;28;20055;-52
2022/06/15 14:43:08;;;;;;;8.05;3.85;;;38.10;33.40;;;;;;5052980;28;20021;-53
2022/06/15 14:45:43;;;;;;;6.82;4.35;;;38.00;33.40;;;;;;5052905;28;20033;-54
2022/06/15 14:48:14;;;;;;;7.75;5.18;;;37.70;33.40;;;;;;5034919;28;20029;-56
2022/06/15 14:50:44;;;;;;;5.40;3.92;;;37.10;34.30;;;;;;5051978;28;20104;-54
2022/06/15 14:53:20;;;;;;;11.80;5.20;;;36.60;35.50;;;;;;5052446;28;20024;-54
2022/06/15 14:55:46;;;;;;;6.82;4.70;;;36.50;37.30;;;;;;5052780;28;20059;-52
2022/06/15 14:58:21;;;;;;;6.47;4.60;;;36.30;36.20;;;;;;5052716;28;20049;-56
2022/06/15 15:00:47;;;;;;;10.93;4.45;;;36.10;36.60;;;;;;5052305;28;20543;-53
2022/06/15 15:03:29;;;;;;;13.52;4.93;;;36.10;37.00;;;;;;5052514;28;20100;-55
2022/06/15 15:05:55;;;;;;;27.85;5.47;;;36.00;36.50;;;;;;5051654;28;20542;-58
2022/06/15 15:08:20;;;;;;;;;;;35.70;36.40;;;;;;5052843;28;20029;-56
2022/06/15 15:11:09;;;;;;;8.82;4.63;;;35.60;36.80;;;;;;5052171;28;19909;-53
2022/06/15 15:13:57;;;;;;;9.00;4.45;;;35.60;37.40;;;;;;5052096;28;20029;-53
2022/06/15 15:16:29;;;;;;;7.55;4.55;;;35.80;37.70;;;;;;5052259;28;20021;-53
2022/06/15 15:18:58;;;;;;;8.60;5.53;;;35.90;37.70;;;;;;5052248;28;20144;-53
2022/06/15 15:21:35;;;;;;;4.72;4.22;;;36.00;37.10;;;;;;5051515;28;20032;-55
2022/06/15 15:24:03;;;;;;;;;;;35.90;36.80;;;;;;5033211;28;20057;-54
2022/06/15 15:26:38;;;;;;;9.15;4.20;;;35.60;36.90;;;;;;5051473;28;19954;-54